createdAt,value
2022-10-09T00:00:47.713Z,100.00
2022-10-09T00:03:17.281Z,100.00
2022-10-09T00:05:45.243Z,100.00
2022-10-09T00:08:12.097Z,100.00
2022-10-09T00:10:45.147Z,100.00
2022-10-09T00:13:12.507Z,100.00
2022-10-09T00:15:41.390Z,100.00
2022-10-09T00:18:10.424Z,100.00
2022-10-09T00:20:38.838Z,100.00
2022-10-09T00:23:06.472Z,100.00
2022-10-09T00:25:34.368Z,100.00
2022-10-09T00:28:01.153Z,100.00
2022-10-09T00:30:28.128Z,100.00
2022-10-09T00:32:55.134Z,100.00
2022-10-09T00:35:22.679Z,100.00
2022-10-09T00:37:49.530Z,100.00
2022-10-09T00:40:17.193Z,100.00
2022-10-09T00:42:45.776Z,100.00
2022-10-09T00:45:20.674Z,100.00
2022-10-09T00:47:51.838Z,100.00
2022-10-09T00:50:24.411Z,100.00
2022-10-09T00:52:55.005Z,100.00
2022-10-09T00:55:23.142Z,100.00
2022-10-09T00:57:51.606Z,100.00
2022-10-09T01:00:18.271Z,100.00
2022-10-09T01:02:44.970Z,100.00
2022-10-09T01:05:12.688Z,100.00
2022-10-09T01:07:45.184Z,100.00
2022-10-09T01:10:28.659Z,100.00
2022-10-09T01:13:06.640Z,100.00
2022-10-09T01:15:44.488Z,100.00
2022-10-09T01:18:36.660Z,100.00
2022-10-09T01:21:08.795Z,100.00
2022-10-09T01:24:14.049Z,100.00
2022-10-09T01:27:02.265Z,100.00
2022-10-09T01:29:35.789Z,100.00
2022-10-09T01:32:04.047Z,100.00
2022-10-09T01:34:32.646Z,100.00
2022-10-09T01:36:59.588Z,100.00
2022-10-09T01:39:28.294Z,100.00
2022-10-09T01:41:55.525Z,100.00
2022-10-09T01:44:32.827Z,100.00
2022-10-09T01:47:00.356Z,100.00
2022-10-09T01:49:44.287Z,100.00
2022-10-09T01:52:17.030Z,100.00
2022-10-09T01:55:21.860Z,100.00
2022-10-09T01:58:18.385Z,100.00
2022-10-09T02:01:29.874Z,100.00
2022-10-09T02:03:59.718Z,100.00
2022-10-09T02:06:28.486Z,100.00
2022-10-09T02:08:55.844Z,100.00
2022-10-09T02:11:25.858Z,100.00
2022-10-09T02:13:53.595Z,100.00
2022-10-09T02:16:37.527Z,100.00
2022-10-09T02:19:11.952Z,100.00
2022-10-09T02:21:50.291Z,100.00
2022-10-09T02:24:21.697Z,100.00
2022-10-09T02:26:48.358Z,100.00
2022-10-09T02:29:15.694Z,100.00
2022-10-09T02:31:43.993Z,100.00
2022-10-09T02:34:13.186Z,100.00
2022-10-09T02:36:40.209Z,100.00
2022-10-09T02:39:07.912Z,100.00
2022-10-09T02:41:35.203Z,100.00
2022-10-09T02:44:02.625Z,100.00
2022-10-09T02:46:29.806Z,100.00
2022-10-09T02:48:56.742Z,100.00
2022-10-09T02:51:23.421Z,100.00
2022-10-09T02:53:53.849Z,100.00
2022-10-09T02:56:22.474Z,100.00
2022-10-09T02:58:49.287Z,100.00
2022-10-09T03:01:15.952Z,100.00
2022-10-09T03:03:46.461Z,100.00
2022-10-09T03:06:20.443Z,100.00
2022-10-09T03:08:48.537Z,100.00
2022-10-09T03:11:17.470Z,100.00
2022-10-09T03:13:45.015Z,100.00
2022-10-09T03:16:13.244Z,100.00
2022-10-09T03:18:40.590Z,100.00
2022-10-09T03:21:09.503Z,100.00
2022-10-09T03:23:36.592Z,100.00
2022-10-09T03:26:05.854Z,100.00
2022-10-09T03:28:34.877Z,100.00
2022-10-09T03:31:01.736Z,100.00
2022-10-09T03:33:28.417Z,100.00
2022-10-09T03:35:55.194Z,100.00
2022-10-09T03:38:21.959Z,100.00
2022-10-09T03:40:48.673Z,100.00
2022-10-09T03:43:15.314Z,100.00
2022-10-09T03:45:42.790Z,100.00
2022-10-09T03:48:11.419Z,100.00
2022-10-09T03:50:39.478Z,100.00
2022-10-09T03:53:07.089Z,100.00
2022-10-09T03:55:33.702Z,100.00
2022-10-09T03:58:00.408Z,100.00
2022-10-09T04:00:27.447Z,100.00
2022-10-09T04:02:54.183Z,100.00
2022-10-09T04:05:21.333Z,100.00
2022-10-09T04:07:48.046Z,100.00
2022-10-09T04:10:14.699Z,100.00
2022-10-09T04:12:42.006Z,100.00
2022-10-09T04:15:09.883Z,100.00
2022-10-09T04:17:36.588Z,100.00
2022-10-09T04:20:03.699Z,100.00
2022-10-09T04:22:30.461Z,100.00
2022-10-09T04:24:57.055Z,100.00
2022-10-09T04:27:23.697Z,100.00
2022-10-09T04:29:50.417Z,100.00
2022-10-09T04:32:17.082Z,100.00
2022-10-09T04:34:43.746Z,100.00
2022-10-09T04:37:10.436Z,100.00
2022-10-09T04:39:37.028Z,100.00
2022-10-09T04:42:03.819Z,100.00
2022-10-09T04:44:30.502Z,100.00
2022-10-09T04:46:57.127Z,100.00
2022-10-09T04:49:23.762Z,100.00
2022-10-09T04:51:50.529Z,100.00
2022-10-09T04:54:17.120Z,100.00
2022-10-09T04:56:43.787Z,100.00
2022-10-09T04:59:11.034Z,100.00
2022-10-09T05:01:38.647Z,100.00
2022-10-09T05:04:05.798Z,100.00
2022-10-09T05:06:32.649Z,100.00
2022-10-09T05:08:59.313Z,100.00
2022-10-09T05:11:26.361Z,100.00
2022-10-09T05:13:56.072Z,100.00
2022-10-09T05:16:28.221Z,100.00
2022-10-09T05:18:57.260Z,100.00
2022-10-09T05:21:24.555Z,100.00
2022-10-09T05:23:53.577Z,100.00
2022-10-09T05:26:22.438Z,100.00
2022-10-09T05:28:49.766Z,100.00
2022-10-09T05:31:27.350Z,100.00
2022-10-09T05:33:55.067Z,100.00
2022-10-09T05:36:22.639Z,100.00
2022-10-09T05:38:49.721Z,100.00
2022-10-09T05:41:18.106Z,100.00
2022-10-09T05:43:46.862Z,100.00
2022-10-09T05:46:18.176Z,100.00
2022-10-09T05:48:47.354Z,100.00
2022-10-09T05:51:25.962Z,100.00
2022-10-09T05:53:53.120Z,100.00
2022-10-09T05:56:26.083Z,100.00
2022-10-09T05:58:58.154Z,100.00
2022-10-09T06:01:27.688Z,100.00
2022-10-09T06:03:56.858Z,100.00
2022-10-09T06:06:25.723Z,100.00
2022-10-09T06:08:52.610Z,100.00
2022-10-09T06:11:24.931Z,100.00
2022-10-09T06:13:52.120Z,100.00
2022-10-09T06:16:19.068Z,100.00
2022-10-09T06:18:49.340Z,100.00
2022-10-09T06:21:17.275Z,100.00
2022-10-09T06:23:44.292Z,100.00
2022-10-09T06:26:13.419Z,100.00
2022-10-09T06:28:40.876Z,100.00
2022-10-09T06:31:18.503Z,100.00
2022-10-09T06:33:47.012Z,100.00
2022-10-09T06:36:22.241Z,100.00
2022-10-09T06:38:49.559Z,100.00
2022-10-09T06:41:18.503Z,100.00
2022-10-09T06:43:56.321Z,100.00
2022-10-09T06:46:25.953Z,100.00
2022-10-09T06:48:52.945Z,100.00
2022-10-09T06:51:21.725Z,100.00
2022-10-09T06:53:51.395Z,100.00
2022-10-09T06:56:19.907Z,100.00
2022-10-09T06:58:46.877Z,100.00
2022-10-09T07:01:17.719Z,100.00
2022-10-09T07:03:47.585Z,100.00
2022-10-09T07:06:15.495Z,100.00
2022-10-09T07:08:44.535Z,100.00
2022-10-09T07:11:17.358Z,100.00
2022-10-09T07:13:44.667Z,100.00
2022-10-09T07:16:12.048Z,100.00
2022-10-09T07:18:39.757Z,100.00
2022-10-09T07:21:08.677Z,100.00
2022-10-09T07:23:36.308Z,100.00
2022-10-09T07:26:11.191Z,100.00
2022-10-09T07:28:38.284Z,100.00
2022-10-09T07:31:05.958Z,100.00
2022-10-09T07:33:32.963Z,100.00
2022-10-09T07:36:01.810Z,100.00
2022-10-09T07:38:28.750Z,100.00
2022-10-09T07:40:59.490Z,100.00
2022-10-09T07:43:26.129Z,100.00
2022-10-09T07:45:52.883Z,100.00
2022-10-09T07:48:19.594Z,100.00
2022-10-09T07:50:46.203Z,100.00
2022-10-09T07:53:12.796Z,100.00
2022-10-09T07:55:48.065Z,100.00
2022-10-09T07:58:16.658Z,100.00
2022-10-09T08:00:44.073Z,100.00
2022-10-09T08:03:11.498Z,100.00
2022-10-09T08:05:38.206Z,100.00
2022-10-09T08:08:04.885Z,100.00
2022-10-09T08:10:32.485Z,100.00
2022-10-09T08:12:59.203Z,100.00
2022-10-09T08:15:26.366Z,100.00
2022-10-09T08:17:54.439Z,100.00
2022-10-09T08:20:21.123Z,100.00
2022-10-09T08:22:48.227Z,100.00
2022-10-09T08:25:15.177Z,100.00
2022-10-09T08:27:41.790Z,100.00
2022-10-09T08:30:09.081Z,100.00
2022-10-09T08:32:35.797Z,100.00
2022-10-09T08:35:02.399Z,100.00
2022-10-09T08:37:29.010Z,100.00
2022-10-09T08:39:55.666Z,100.00
2022-10-09T08:42:49.020Z,100.00
2022-10-09T08:45:17.798Z,100.00
2022-10-09T08:47:56.725Z,100.00
2022-10-09T08:50:27.926Z,100.00
2022-10-09T08:53:03.144Z,100.00
2022-10-09T08:55:36.596Z,100.00
2022-10-09T08:58:05.461Z,100.00
2022-10-09T09:00:57.250Z,100.00
2022-10-09T09:03:45.448Z,100.00
2022-10-09T09:06:19.670Z,100.00
2022-10-09T09:09:02.323Z,100.00
2022-10-09T09:11:40.002Z,100.00
2022-10-09T09:14:27.152Z,100.00
2022-10-09T09:17:16.979Z,100.00
2022-10-09T09:19:51.164Z,100.00
2022-10-09T09:22:17.902Z,100.00
2022-10-09T09:24:57.278Z,100.00
2022-10-09T09:27:31.615Z,100.00
2022-10-09T09:30:21.266Z,100.00
2022-10-09T09:32:54.817Z,100.00
2022-10-09T09:35:46.875Z,100.00
2022-10-09T09:38:14.811Z,100.00
2022-10-09T09:40:46.758Z,100.00
2022-10-09T09:43:18.563Z,100.00
2022-10-09T09:45:46.660Z,100.00
2022-10-09T09:48:18.836Z,100.00
2022-10-09T09:50:59.842Z,100.00
2022-10-09T09:53:40.051Z,100.00
2022-10-09T09:56:07.694Z,100.00
2022-10-09T09:58:44.971Z,100.00
2022-10-09T10:01:21.679Z,100.00
2022-10-09T10:03:51.888Z,100.00
2022-10-09T10:06:23.940Z,99.62
2022-10-09T10:08:59.775Z,97.58
2022-10-09T10:11:29.117Z,91.26
2022-10-09T10:13:55.906Z,88.99
2022-10-09T10:16:28.479Z,86.23
2022-10-09T10:18:57.550Z,83.52
2022-10-09T10:21:24.285Z,81.90
2022-10-09T10:23:56.676Z,78.36
2022-10-09T10:26:32.199Z,75.28
2022-10-09T10:29:09.871Z,74.67
2022-10-09T10:32:02.486Z,72.14
2022-10-09T10:34:45.799Z,68.74
2022-10-09T10:37:15.188Z,67.84
2022-10-09T10:39:49.212Z,66.28
2022-10-09T10:42:24.203Z,64.66
2022-10-09T10:44:57.899Z,63.85
2022-10-09T10:47:28.142Z,63.20
2022-10-09T10:49:54.811Z,63.95
2022-10-09T10:52:54.989Z,62.25
2022-10-09T10:56:05.344Z,59.65
2022-10-09T10:59:03.930Z,58.61
2022-10-09T11:01:42.456Z,58.07
2022-10-09T11:04:14.959Z,57.47
2022-10-09T11:06:57.849Z,55.67
2022-10-09T11:09:47.449Z,53.96
2022-10-09T11:12:47.746Z,52.87
2022-10-09T11:15:19.426Z,51.97
2022-10-09T11:17:48.914Z,51.38
2022-10-09T11:20:15.603Z,50.72
2022-10-09T11:23:08.681Z,52.85
2022-10-09T11:26:13.139Z,51.15
2022-10-09T11:28:50.020Z,50.24
2022-10-09T11:31:38.955Z,49.10
2022-10-09T11:34:18.308Z,46.76
2022-10-09T11:36:45.536Z,47.15
2022-10-09T11:39:18.508Z,46.75
2022-10-09T11:41:47.662Z,48.09
2022-10-09T11:44:29.780Z,47.35
2022-10-09T11:47:02.885Z,45.65
2022-10-09T11:49:39.087Z,46.09
2022-10-09T11:52:21.030Z,46.89
2022-10-09T11:54:47.822Z,45.23
2022-10-09T11:57:15.498Z,43.97
2022-10-09T11:59:42.732Z,43.62
2022-10-09T12:02:28.631Z,44.64
2022-10-09T12:04:55.880Z,43.09
2022-10-09T12:10:32.860Z,42.18
2022-10-09T12:13:06.222Z,42.26
2022-10-09T12:15:59.000Z,40.44
2022-10-09T12:18:28.783Z,39.91
2022-10-09T12:21:00.221Z,41.74
2022-10-09T12:23:31.940Z,39.76
2022-10-09T12:26:00.467Z,38.80
2022-10-09T12:28:41.541Z,37.67
2022-10-09T12:31:24.553Z,36.72
2022-10-09T12:34:25.713Z,35.95
2022-10-09T12:37:03.083Z,35.55
2022-10-09T12:39:33.805Z,36.75
2022-10-09T12:42:00.780Z,36.03
2022-10-09T12:44:38.636Z,35.61
2022-10-09T12:47:08.962Z,35.24
2022-10-09T12:49:36.256Z,36.37
2022-10-09T12:52:03.030Z,36.94
2022-10-09T12:54:31.528Z,37.37
2022-10-09T12:56:59.611Z,34.69
2022-10-09T12:59:27.958Z,35.00
2022-10-09T13:01:59.020Z,34.58
2022-10-09T13:04:32.683Z,35.25
2022-10-09T13:07:02.778Z,34.79
2022-10-09T13:09:37.215Z,34.14
2022-10-09T13:12:15.814Z,33.90
2022-10-09T13:15:02.898Z,33.72
2022-10-09T13:17:33.541Z,33.29
2022-10-09T13:20:04.342Z,33.25
2022-10-09T13:22:35.185Z,33.28
2022-10-09T13:25:02.568Z,33.17
2022-10-09T13:27:37.809Z,33.45
2022-10-09T13:30:05.424Z,33.35
2022-10-09T13:32:32.009Z,32.83
2022-10-09T13:34:58.716Z,32.86
2022-10-09T13:37:27.176Z,32.84
2022-10-09T13:40:01.053Z,32.57
2022-10-09T13:42:32.385Z,32.52
2022-10-09T13:44:59.105Z,32.42
2022-10-09T13:47:25.799Z,31.84
2022-10-09T13:49:52.399Z,32.47
2022-10-09T13:52:19.091Z,31.83
2022-10-09T13:54:45.812Z,31.06
2022-10-09T13:57:12.637Z,31.74
2022-10-09T13:59:39.948Z,31.83
2022-10-09T14:02:06.709Z,32.42
2022-10-09T14:04:33.329Z,32.52
2022-10-09T14:07:00.186Z,31.98
2022-10-09T14:09:26.930Z,32.13
2022-10-09T14:11:53.736Z,32.34
2022-10-09T14:14:22.478Z,32.41
2022-10-09T14:16:50.813Z,32.03
2022-10-09T14:19:18.066Z,32.46
2022-10-09T14:21:46.916Z,31.98
2022-10-09T14:24:14.562Z,31.99
2022-10-09T14:26:41.345Z,31.83
2022-10-09T14:29:09.244Z,31.81
2022-10-09T14:31:35.911Z,31.40
2022-10-09T14:34:02.555Z,31.84
2022-10-09T14:36:29.553Z,32.03
2022-10-09T14:38:56.198Z,32.41
2022-10-09T14:41:23.963Z,32.98
2022-10-09T14:43:56.890Z,33.16
2022-10-09T14:46:24.489Z,33.46
2022-10-09T14:48:53.615Z,33.19
2022-10-09T14:51:22.544Z,32.73
2022-10-09T14:53:50.066Z,33.37
2022-10-09T14:56:20.347Z,34.10
2022-10-09T14:58:47.899Z,35.26
2022-10-09T15:01:16.966Z,34.68
2022-10-09T15:03:44.895Z,35.71
2022-10-09T15:06:13.249Z,37.02
2022-10-09T15:08:42.035Z,36.83
2022-10-09T15:11:10.319Z,36.64
2022-10-09T15:13:37.667Z,37.28
2022-10-09T15:16:07.899Z,37.62
2022-10-09T15:18:35.064Z,37.42
2022-10-09T15:21:01.971Z,37.41
2022-10-09T15:23:29.107Z,37.76
2022-10-09T15:25:57.527Z,37.83
2022-10-09T15:28:24.840Z,37.13
2022-10-09T15:30:58.316Z,37.94
2022-10-09T15:33:26.055Z,37.09
2022-10-09T15:35:53.758Z,37.43
2022-10-09T15:38:23.136Z,38.59
2022-10-09T15:40:55.626Z,38.47
2022-10-09T15:43:24.452Z,39.75
2022-10-09T15:45:51.480Z,39.51
2022-10-09T15:48:23.883Z,40.47
2022-10-09T15:50:53.698Z,42.75
2022-10-09T15:53:23.563Z,44.56
2022-10-09T15:55:52.575Z,46.70
2022-10-09T15:58:19.775Z,49.01
2022-10-09T16:00:48.784Z,50.84
2022-10-09T16:03:17.227Z,53.19
2022-10-09T16:05:48.488Z,54.95
2022-10-09T16:08:16.993Z,58.49
2022-10-09T16:10:49.431Z,60.51
2022-10-09T16:13:16.627Z,64.09
2022-10-09T16:15:44.457Z,64.90
2022-10-09T16:18:11.544Z,67.55
2022-10-09T16:20:39.890Z,70.65
2022-10-09T16:23:07.994Z,76.38
2022-10-09T16:25:35.560Z,78.18
2022-10-09T16:28:03.079Z,83.08
2022-10-09T16:30:29.856Z,83.28
2022-10-09T16:32:56.566Z,86.29
2022-10-09T16:35:23.217Z,88.18
2022-10-09T16:37:52.458Z,89.54
2022-10-09T16:40:21.051Z,92.85
2022-10-09T16:42:52.260Z,96.36
2022-10-09T16:45:19.035Z,97.56
2022-10-09T16:47:45.798Z,98.53
2022-10-09T16:50:12.443Z,100.00
2022-10-09T16:52:39.107Z,100.00
2022-10-09T16:55:06.423Z,100.00
2022-10-09T16:57:35.674Z,100.00
2022-10-09T17:00:03.828Z,100.00
2022-10-09T17:02:30.566Z,100.00
2022-10-09T17:04:57.173Z,100.00
2022-10-09T17:07:24.793Z,100.00
2022-10-09T17:09:52.411Z,100.00
2022-10-09T17:12:19.129Z,100.00
2022-10-09T17:14:47.615Z,100.00
2022-10-09T17:17:14.155Z,100.00
2022-10-09T17:19:40.885Z,100.00
2022-10-09T17:22:07.999Z,100.00
2022-10-09T17:24:35.142Z,100.00
2022-10-09T17:27:01.799Z,100.00
2022-10-09T17:29:28.460Z,100.00
2022-10-09T17:31:55.138Z,100.00
2022-10-09T17:34:22.026Z,100.00
2022-10-09T17:36:48.662Z,100.00
2022-10-09T17:39:17.170Z,100.00
2022-10-09T17:41:46.337Z,100.00
2022-10-09T17:44:15.220Z,100.00
2022-10-09T17:46:42.470Z,100.00
2022-10-09T17:49:09.906Z,100.00
2022-10-09T17:51:39.775Z,100.00
2022-10-09T17:54:13.873Z,100.00
2022-10-09T17:56:40.521Z,100.00
2022-10-09T17:59:07.445Z,100.00
2022-10-09T18:01:34.765Z,100.00
2022-10-09T18:04:02.003Z,100.00
2022-10-09T18:06:32.150Z,100.00
2022-10-09T18:08:59.186Z,100.00
2022-10-09T18:11:27.209Z,100.00
2022-10-09T18:13:54.560Z,100.00
2022-10-09T18:16:36.217Z,100.00
2022-10-09T18:19:10.415Z,100.00
2022-10-09T18:21:38.812Z,100.00
2022-10-09T18:24:05.614Z,100.00
2022-10-09T18:26:32.691Z,100.00
2022-10-09T18:29:00.929Z,100.00
2022-10-09T18:31:28.091Z,100.00
2022-10-09T18:33:54.800Z,100.00
2022-10-09T18:36:24.502Z,100.00
2022-10-09T18:38:54.208Z,100.00
2022-10-09T18:41:22.863Z,100.00
2022-10-09T18:43:50.971Z,100.00
2022-10-09T18:46:21.077Z,100.00
2022-10-09T18:48:48.008Z,100.00
2022-10-09T18:51:20.806Z,100.00
2022-10-09T18:53:51.551Z,100.00
2022-10-09T18:56:21.394Z,100.00
2022-10-09T18:58:51.799Z,100.00
2022-10-09T19:01:19.092Z,100.00
2022-10-09T19:03:49.092Z,100.00
2022-10-09T19:06:18.012Z,100.00
2022-10-09T19:08:44.762Z,100.00
2022-10-09T19:11:14.579Z,100.00
2022-10-09T19:13:42.738Z,100.00
2022-10-09T19:16:10.986Z,100.00
2022-10-09T19:18:38.135Z,100.00
2022-10-09T19:21:04.917Z,100.00
2022-10-09T19:23:31.665Z,100.00
2022-10-09T19:25:59.469Z,100.00
2022-10-09T19:28:31.168Z,100.00
2022-10-09T19:30:57.871Z,100.00
2022-10-09T19:33:24.660Z,100.00
2022-10-09T19:35:54.196Z,100.00
2022-10-09T19:38:21.750Z,100.00
2022-10-09T19:40:49.496Z,100.00
2022-10-09T19:43:17.611Z,100.00
2022-10-09T19:45:44.594Z,100.00
2022-10-09T19:48:11.372Z,100.00
2022-10-09T19:50:45.287Z,100.00
2022-10-09T19:53:13.150Z,100.00
2022-10-09T19:55:39.873Z,100.00
2022-10-09T19:58:06.937Z,100.00
2022-10-09T20:00:33.881Z,100.00
2022-10-09T20:03:00.507Z,100.00
2022-10-09T20:05:29.042Z,100.00
2022-10-09T20:07:58.529Z,100.00
2022-10-09T20:10:25.138Z,100.00
2022-10-09T20:12:52.358Z,100.00
2022-10-09T20:15:20.710Z,100.00
2022-10-09T20:17:47.571Z,100.00
2022-10-09T20:20:19.827Z,100.00
2022-10-09T20:22:46.777Z,100.00
2022-10-09T20:25:13.572Z,100.00
2022-10-09T20:27:40.212Z,100.00
2022-10-09T20:30:07.529Z,100.00
2022-10-09T20:32:36.900Z,100.00
2022-10-09T20:35:05.477Z,100.00
2022-10-09T20:37:32.147Z,100.00
2022-10-09T20:39:58.778Z,100.00
2022-10-09T20:42:25.669Z,100.00
2022-10-09T20:44:52.527Z,100.00
2022-10-09T20:47:19.158Z,100.00
2022-10-09T20:49:45.761Z,100.00
2022-10-09T20:52:12.514Z,100.00
2022-10-09T20:54:39.132Z,100.00
2022-10-09T20:57:05.934Z,100.00
2022-10-09T20:59:32.926Z,100.00
2022-10-09T21:01:59.652Z,100.00
2022-10-09T21:04:26.399Z,100.00
2022-10-09T21:06:53.295Z,100.00
2022-10-09T21:09:20.001Z,100.00
2022-10-09T21:11:46.663Z,100.00
2022-10-09T21:14:13.464Z,100.00
2022-10-09T21:16:40.182Z,100.00
2022-10-09T21:19:06.959Z,100.00
2022-10-09T21:21:34.326Z,100.00
2022-10-09T21:24:01.546Z,100.00
2022-10-09T21:26:30.096Z,100.00
2022-10-09T21:28:59.700Z,100.00
2022-10-09T21:31:29.131Z,100.00
2022-10-09T21:33:57.174Z,100.00
2022-10-09T21:36:50.805Z,100.00
2022-10-09T21:39:25.930Z,100.00
2022-10-09T21:41:52.715Z,100.00
2022-10-09T21:44:19.320Z,100.00
2022-10-09T21:46:46.112Z,100.00
2022-10-09T21:49:25.090Z,100.00
2022-10-09T21:51:52.187Z,100.00
2022-10-09T21:54:19.435Z,100.00
2022-10-09T21:56:48.826Z,100.00
2022-10-09T21:59:15.634Z,100.00
2022-10-09T22:01:42.364Z,100.00
2022-10-09T22:04:09.566Z,100.00
2022-10-09T22:06:36.726Z,100.00
2022-10-09T22:09:04.056Z,100.00
2022-10-09T22:11:31.105Z,100.00
2022-10-09T22:13:58.148Z,100.00
2022-10-09T22:16:25.471Z,100.00
2022-10-09T22:18:54.996Z,100.00
2022-10-09T22:21:23.280Z,100.00
2022-10-09T22:23:51.013Z,100.00
2022-10-09T22:26:24.176Z,100.00
2022-10-09T22:28:51.479Z,100.00
2022-10-09T22:31:21.913Z,100.00
2022-10-09T22:33:57.959Z,100.00
2022-10-09T22:36:27.225Z,100.00
2022-10-09T22:38:55.824Z,100.00
2022-10-09T22:41:24.340Z,100.00
2022-10-09T22:43:54.188Z,100.00
2022-10-09T22:46:26.411Z,100.00
2022-10-09T22:48:53.455Z,100.00
2022-10-09T22:51:21.890Z,100.00
2022-10-09T22:53:50.057Z,100.00
2022-10-09T22:56:22.740Z,100.00
2022-10-09T22:58:51.820Z,100.00
2022-10-09T23:01:31.333Z,100.00
2022-10-09T23:03:59.933Z,100.00
2022-10-09T23:06:27.069Z,100.00
2022-10-09T23:08:53.983Z,100.00
2022-10-09T23:11:22.323Z,100.00
2022-10-09T23:13:54.715Z,100.00
2022-10-09T23:16:21.887Z,100.00
2022-10-09T23:18:48.983Z,100.00
2022-10-09T23:21:18.735Z,100.00
2022-10-09T23:23:46.989Z,100.00
2022-10-09T23:26:16.323Z,100.00
2022-10-09T23:28:43.741Z,100.00
2022-10-09T23:31:15.092Z,100.00
2022-10-09T23:33:43.739Z,100.00
2022-10-09T23:36:13.589Z,100.00
2022-10-09T23:38:40.670Z,100.00
2022-10-09T23:41:11.230Z,100.00
2022-10-09T23:43:39.613Z,100.00
2022-10-09T23:46:08.023Z,100.00
2022-10-09T23:48:34.914Z,100.00
2022-10-09T23:51:02.010Z,100.00
2022-10-09T23:53:28.987Z,100.00
2022-10-09T23:55:55.626Z,100.00
2022-10-09T23:58:22.572Z,100.00
